• Join FlightAware (Why Join?)
  • Login
  • US Flag 
10:43AM EDT


 

Airport Tracker/Info


-or-


 

Live Flight TrackerFlight Track Log ✈ N56194 ✈ 08-Sep-2013 ✈ KVRB - KBQK

Flight Track Log - Related Links

Times and Time Zones

All times are in EDT time to prevent confusion due to time zone crossing. See the N56194 flight status page for this flight to view local times or setup timezone preferences in your user account.

Time Position Orientation Groundspeed Altitude Reporting Facility
EDT Latitude Longitude Course Direction KTS MPH feet Rate Location/Type
07:33AM 27.6756 -80.4422 346° North 98 113 900  Level Miami Center
07:34AM 27.6983 -80.4497 344° North 85 98 1,500 480 Climbing Miami Center
07:35AM 27.7253 -80.4600 341° North 85 98 1,900 420 Climbing Miami Center
07:36AM 27.7503 -80.4656 349° North 90 104 2,400 420 Climbing Miami Center
07:37AM 27.7750 -80.4758 340° North 90 104 2,800 480 Climbing Miami Center
07:38AM 27.8246 -80.4654 346° North  Level Estimated
07:38AM 27.8061 -80.4839 347° North 90 104 3,400  Level Miami Center
07:39AM 27.8308 -80.4939 340° North 90 104 3,800 420 Climbing Miami Center
07:42AM 27.8833 -80.5167 339° North 102 117 4,900 420 Climbing Orlando TRACON
07:43AM 27.9167 -80.5333 336° Northwest 102 117 5,300 360 Climbing Orlando TRACON
07:43AM 27.9333 -80.5500 319° Northwest 102 117 5,600 300 Climbing Orlando TRACON
07:44AM 27.9667 -80.5667 336° Northwest 105 121 5,900 360 Climbing Orlando TRACON
07:45AM 27.9833 -80.5833 319° Northwest 103 119 6,400 420 Climbing Orlando TRACON
07:46AM 28.0167 -80.5833 360° North 98 113 6,800 240 Climbing Orlando TRACON
07:47AM 28.0333 -80.6000 319° Northwest 108 124 6,900 60 Climbing Orlando TRACON
07:48AM 28.0667 -80.6167 336° Northwest 121 139 7,000  Climbing Orlando TRACON
07:49AM 28.1000 -80.6333 336° Northwest 129 148 7,000  Level Orlando TRACON
07:50AM 28.1333 -80.6500 336° Northwest 131 151 7,000 -60 Level Orlando TRACON
07:51AM 28.1667 -80.6667 336° Northwest 130 150 6,900  Descending Orlando TRACON
07:52AM 28.2000 -80.6833 336° Northwest 126 145 7,000  Climbing Orlando TRACON
07:53AM 28.2333 -80.6833 360° North 128 147 7,000  Level Orlando TRACON
07:54AM 28.2667 -80.7000 336° Northwest 128 147 7,000 -60 Level Orlando TRACON
07:55AM 28.3000 -80.7000 360° North 128 147 6,900 -60 Descending Orlando TRACON
07:56AM 28.3333 -80.7167 336° Northwest 129 148 6,900  Level Orlando TRACON
07:57AM 28.3833 -80.7333 344° North 130 150 6,900  Level Orlando TRACON
07:58AM 28.4000 -80.7333 360° North 129 148 6,900  Level Orlando TRACON
07:59AM 28.4333 -80.7500 336° Northwest 128 147 7,000  Climbing Orlando TRACON
08:00AM 28.4833 -80.7667 344° North 133 153 7,000 -60 Level Orlando TRACON
08:01AM 28.5167 -80.7833 336° Northwest 133 153 6,900  Descending Orlando TRACON
08:02AM 28.5500 -80.8000 336° Northwest 136 157 7,000  Climbing Orlando TRACON
08:03AM 28.5833 -80.8000 360° North 133 153 7,000  Level Orlando TRACON
08:04AM 28.6167 -80.8167 336° Northwest 134 154 7,000  Level Orlando TRACON
08:05AM 28.6500 -80.8333 336° Northwest 134 154 7,000  Level Orlando TRACON
08:06AM 28.7000 -80.8500 344° North 137 158 7,000 -60 Level Orlando TRACON
08:07AM 28.7333 -80.8667 336° Northwest 133 153 6,900  Descending Orlando TRACON
08:09AM 28.7939 -80.8956 337° Northwest 135 155 7,000  Climbing Jacksonville Center
08:10AM 28.8317 -80.9089 343° North 135 155 7,000 -60 Level Jacksonville Center
08:11AM 28.8653 -80.9200 344° North 136 157 6,900 -60 Descending Jacksonville Center
08:12AM 28.9008 -80.9336 341° North 135 155 6,900  Level Jacksonville Center
08:13AM 28.9386 -80.9519 337° Northwest 135 155 6,900  Level Jacksonville Center
08:14AM 28.9744 -80.9631 345° North 130 150 7,000  Climbing Jacksonville Center
08:15AM 29.0100 -80.9694 351° North 130 150 7,000 -60 Level Jacksonville Center
08:17AM 29.0497 -80.9758 352° North 133 153 6,900 -60 Descending Jacksonville Center
08:18AM 29.0831 -80.9800 354° North 129 148 6,900  Level Jacksonville Center
08:19AM 29.1250 -80.9861 353° North 129 148 6,900  Level Jacksonville Center
08:20AM 29.1586 -80.9928 350° North 132 152 6,900  Level Jacksonville Center
08:21AM 29.1942 -80.9992 351° North 130 150 6,900  Level Jacksonville Center
08:22AM 29.2317 -81.0033 354° North 133 153 6,900  Level Jacksonville Center
08:23AM 29.2694 -81.0097 352° North 135 155 6,900  Level Jacksonville Center
08:24AM 29.3092 -81.0161 352° North 135 155 6,900  Level Jacksonville Center
08:25AM 29.3447 -81.0247 348° North 131 151 6,900  Level Jacksonville Center
08:26AM 29.3844 -81.0289 355° North 129 148 6,900  Level Jacksonville Center
08:27AM 29.4181 -81.0378 347° North 131 151 6,900  Level Jacksonville Center
08:28AM 29.4514 -81.0419 354° North 130 150 7,000  Climbing Jacksonville Center
08:29AM 29.4892 -81.0483 352° North 132 152 7,000  Level Jacksonville Center
08:30AM 29.5247 -81.0547 351° North 132 152 7,000  Level Jacksonville Center
08:31AM 29.5622 -81.0589 354° North 131 151 7,000  Level Jacksonville Center
08:32AM 29.5981 -81.0703 345° North 132 152 7,000  Level Jacksonville Center
08:32AM 29.6064 -81.0700 North 136 157 7,000  Level Jacksonville Center
08:34AM 29.6650 -81.0808 351° North 134 154 7,000  Level Jacksonville Center
08:35AM 29.7025 -81.0872 352° North 132 152 7,000  Level Jacksonville Center
08:36AM 29.7403 -81.0961 348° North 135 155 7,000  Level Jacksonville Center
08:37AM 29.7717 -81.1028 350° North 134 154 7,000  Level Jacksonville Center
08:38AM 29.8178 -81.1092 353° North 134 154 7,000  Level Jacksonville Center
08:39AM 29.8556 -81.1181 348° North 133 153 7,100  Climbing Jacksonville Center
08:40AM 29.8931 -81.1244 352° North 135 155 7,100 -60 Level Jacksonville Center
08:41AM 29.9308 -81.1358 345° North 135 155 7,000 -60 Descending Jacksonville Center
08:42AM 29.9683 -81.1400 355° North 136 157 7,000  Level Jacksonville Center
08:43AM 30.0061 -81.1439 355° North 134 154 7,000  Level Jacksonville Center
08:44AM 30.0458 -81.1481 355° North 135 155 7,000  Level Jacksonville Center
08:45AM 30.0833 -81.1497 358° North 133 153 7,000  Level Jacksonville Center
08:46AM 30.1211 -81.1564 351° North 132 152 7,000  Level Jacksonville Center
08:47AM 30.1608 -81.1606 355° North 135 155 7,000  Level Jacksonville Center
08:48AM 30.2025 -81.1622 358° North 131 151 7,000  Level Jacksonville Center
08:49AM 30.2422 -81.1661 355° North 131 151 7,000  Level Jacksonville Center
08:50AM 30.2758 -81.1656 North 132 152 7,000  Level Jacksonville Center
08:51AM 30.3111 -81.1697 354° North 130 150 7,000  Level Jacksonville Center
08:52AM 30.3489 -81.1714 358° North 130 150 7,000 60 Level Jacksonville Center
08:53AM 30.3614 -81.1714 360° North 131 151 7,100 60 Climbing Jacksonville Center
08:54AM 30.3969 -81.1731 358° North 131 151 7,100  Level Jacksonville Center
08:55AM 30.4325 -81.1747 358° North 131 151 7,200  Climbing Jacksonville Center
08:56AM 30.4681 -81.1767 357° North 126 145 7,100 -60 Descending Jacksonville Center
08:57AM 30.5033 -81.1783 358° North 121 139 7,100  Level Jacksonville Center
08:58AM 30.5411 -81.1825 355° North 121 139 7,100  Level Jacksonville Center
08:59AM 30.5767 -81.1842 358° North 121 139 7,100  Level Jacksonville Center
09:00AM 30.6142 -81.1861 357° North 121 139 7,100  Level Jacksonville Center
09:01AM 30.6497 -81.1878 358° North 121 139 7,100  Level Jacksonville Center
09:02AM 30.6831 -81.1897 357° North 121 139 7,100  Level Jacksonville Center
09:03AM 30.7208 -81.1939 355° North 127 146 7,200  Climbing Jacksonville Center
09:04AM 30.7564 -81.1981 354° North 127 146 7,200  Level Jacksonville Center
09:05AM 30.7919 -81.2022 354° North 127 146 7,300  Climbing Jacksonville Center
09:06AM 30.8275 -81.2017 North 122 140 7,200  Descending Jacksonville Center
09:07AM 30.8608 -81.2058 354° North 122 140 7,300  Climbing Jacksonville Center
09:08AM 30.8983 -81.2075 358° North 122 140 7,300  Level Jacksonville Center
09:09AM 30.9319 -81.2094 357° North 122 140 7,300 -60 Level Jacksonville Center
09:10AM 30.9694 -81.2111 358° North 122 140 7,200 -60 Descending Jacksonville Center
09:11AM 31.0050 -81.2153 354° North 122 140 7,200 -60 Level Jacksonville Center
09:12AM 31.0406 -81.2194 354° North 122 140 7,100 -60 Descending Jacksonville Center
09:13AM 31.0783 -81.2236 355° North 122 140 7,100 -60 Level Jacksonville Center
09:14AM 31.1158 -81.2256 357° North 122 140 7,000 -60 Descending Jacksonville Center
09:15AM 31.1533 -81.2247 North 122 140 7,000  Level Jacksonville Center
09:16AM 31.1889 -81.2242 North 122 140 7,100  Climbing Jacksonville Center
09:17AM 31.2222 -81.2189 North 117 135 7,100  Level Jacksonville Center
09:18AM 31.2536 -81.2158 North 123 142 7,100  Level Jacksonville Center
09:19AM 31.2931 -81.2175 358° North 123 142 7,100 -60 Level Jacksonville Center
09:20AM 31.3267 -81.2144 North 123 142 7,000 -60 Descending Jacksonville Center
09:21AM 31.3622 -81.2186 354° North 123 142 7,000  Level Jacksonville Center
09:22AM 31.3933 -81.2181 North 118 136 7,100  Climbing Jacksonville Center
09:23AM 31.4269 -81.2175 North 124 143 7,100  Level Jacksonville Center
09:24AM 31.4644 -81.2169 North 124 143 7,100 -60 Level Jacksonville Center
09:25AM 31.4978 -81.2186 358° North 124 143 7,000 -60 Descending Jacksonville Center
09:26AM 31.5353 -81.2181 North 124 143 7,000  Level Jacksonville Center
09:27AM 31.5667 -81.2175 North 124 143 7,000  Level Jacksonville Center
09:28AM 31.6064 -81.2142 North 124 143 7,000  Level Jacksonville Center
09:30AM 31.6666 -81.2013 10° North  Level FlightAware Approximate
09:37AM 31.8883 -81.1538 10° North  Level FlightAware Approximate
09:38AM 31.9200 -81.1470 10° North  Level FlightAware Approximate
09:39AM 31.9517 -81.1402 10° North  Level FlightAware Approximate
09:40AM 31.9893 -81.1333 North  Level FlightAware Approximate
09:41AM 32.0215 -81.1333 North  Level FlightAware Approximate
09:42AM 32.0537 -81.1333 360° North  Level FlightAware Approximate
09:43AM 32.0859 -81.1333 360° North  Level FlightAware Approximate
09:44AM 32.1181 -81.1333 360° North  Level FlightAware Approximate
09:45AM 32.1503 -81.1333 360° North  Level FlightAware Approximate
09:46AM 32.1825 -81.1333 360° North  Level FlightAware Approximate
09:47AM 32.2147 -81.1333 360° North  Level FlightAware Approximate
09:48AM 32.2469 -81.1333 360° North  Level FlightAware Approximate
09:49AM 32.2791 -81.1333 360° North  Level FlightAware Approximate
09:50AM 32.3113 -81.1333 360° North  Level FlightAware Approximate
09:51AM 32.3435 -81.1333 360° North  Level FlightAware Approximate
09:52AM 32.3757 -81.1333 360° North  Level FlightAware Approximate
09:53AM 32.4079 -81.1333 360° North  Level FlightAware Approximate
09:53AM 32.4894 -81.2056 360° North 118 136 7,100  Level Jacksonville Center
09:54AM 32.4401 -81.1333 360° North  Level FlightAware Approximate
09:54AM 32.5247 -81.2072 358° North 118 136 7,100  Level Jacksonville Center
09:55AM 32.4723 -81.1333 360° North  Level FlightAware Approximate
09:55AM 32.5561 -81.2067 North 118 136 7,100  Level Jacksonville Center
09:56AM 32.5045 -81.1333 360° North  Level FlightAware Approximate
09:56AM 32.5833 -81.2061 North 118 136 7,100  Level Jacksonville Center
09:57AM 32.5367 -81.1333 360° North  Level FlightAware Approximate
09:57AM 32.6167 -81.2056 North 118 136 7,100  Level Jacksonville Center
09:58AM 32.6542 -81.2072 358° North 124 143 7,100 -60 Level Jacksonville Center
09:59AM 32.6897 -81.2042 North 119 137 7,000  Descending Jacksonville Center
10:00AM 32.7231 -81.2036 North 119 137 7,100  Climbing Jacksonville Center
10:01AM 32.7567 -81.2056 357° North 119 137 7,100  Level Jacksonville Center
10:02AM 32.7919 -81.2072 358° North 119 137 7,100  Level Jacksonville Center
10:03AM 32.8233 -81.2042 North 119 137 7,100  Level Jacksonville Center
10:04AM 32.8567 -81.2036 North 119 137 7,100  Level Jacksonville Center
10:05AM 32.8881 -81.2031 North 124 143 7,100  Level Jacksonville Center
10:06AM 32.9214 -81.2047 358° North 124 143 7,100  Level Jacksonville Center
10:07AM 32.9528 -81.2017 North 119 137 7,100  Level Jacksonville Center
10:08AM 32.9861 -81.2036 357° North 119 137 7,100  Level Jacksonville Center
10:09AM 33.0194 -81.2006 North 119 137 7,100  Level Jacksonville Center
10:10AM 33.0550 -81.1997 North 119 137 7,100  Level Jacksonville Center
10:11AM 33.0864 -81.2017 357° North 119 137 7,100  Level Jacksonville Center
10:12AM 33.1197 -81.1986 North 119 137 7,100  Level Jacksonville Center
10:13AM 33.1550 -81.1981 North 119 137 7,100  Level Jacksonville Center
10:14AM 33.1864 -81.1972 North 119 137 7,100  Level Jacksonville Center
10:15AM 33.2219 -81.1942 North 119 137 7,100  Level Jacksonville Center
10:16AM 33.2531 -81.1961 357° North 124 143 7,100  Level Jacksonville Center
10:17AM 33.2867 -81.1931 North 124 143 7,100  Level Jacksonville Center
10:18AM 33.3242 -81.1922 North 124 143 7,100  Level Jacksonville Center
10:19AM 33.3553 -81.1892 North 124 143 7,100  Level Jacksonville Center
10:20AM 33.3908 -81.1908 358° North 124 143 7,100 -60 Level Jacksonville Center
10:22AM 33.4414 -81.1890 North  Level FlightAware Approximate
10:29AM 33.6774 -81.1805 North  Level FlightAware Approximate
10:30AM 33.7113 -81.1793 North  Level FlightAware Approximate
10:31AM 33.7451 -81.1781 North  Level FlightAware Approximate
10:32AM 33.7790 -81.1769 North  Level FlightAware Approximate
10:33AM 33.8128 -81.1757 North  Level FlightAware Approximate
10:34AM 33.8467 -81.1744 North  Level FlightAware Approximate
10:35AM 33.8806 -81.1732 North  Level FlightAware Approximate
10:36AM 33.9144 -81.1720 North  Level FlightAware Approximate
10:37AM 33.9483 -81.1708 North  Level FlightAware Approximate
10:38AM 33.9815 -81.1500 North  Level FlightAware Approximate
10:39AM 34.0148 -81.1500 North  Level FlightAware Approximate
10:40AM 34.0482 -81.1500 North  Level FlightAware Approximate
10:41AM 34.0815 -81.1500 North  Level FlightAware Approximate
10:42AM 34.1148 -81.1500 North  Level FlightAware Approximate
10:43AM 34.1482 -81.1500 North  Level FlightAware Approximate
10:44AM 34.1815 -81.1500 North  Level FlightAware Approximate
10:45AM 34.2148 -81.1500 North  Level FlightAware Approximate
10:46AM 34.2481 -81.1500 North  Level FlightAware Approximate
10:47AM 34.2815 -81.1500 North  Level FlightAware Approximate
10:48AM 34.3148 -81.1500 North  Level FlightAware Approximate
10:49AM 34.3481 -81.1500 North  Level FlightAware Approximate
10:50AM 34.3815 -81.1500 North  Level FlightAware Approximate
10:51AM 34.4148 -81.1500 North  Level FlightAware Approximate
10:51AM 34.4600 -81.1769 North 113 130 5,200  Level Atlanta Center
10:52AM 34.4481 -81.1500 North  Level FlightAware Approximate
10:52AM 34.5061 -81.1778 359° North 119 137 5,100  Level Atlanta Center
10:53AM 34.4814 -81.1500 North  Level FlightAware Approximate
10:53AM 34.5417 -81.1817 355° North 121 139 5,100  Level Atlanta Center
10:54AM 34.5148 -81.1500 North  Level FlightAware Approximate
10:54AM 34.5750 -81.1856 355° North 120 138 5,000  Level Atlanta Center
10:55AM 34.5481 -81.1500 North  Level FlightAware Approximate
10:55AM 34.6086 -81.1919 351° North 120 138 5,100  Level Atlanta Center
10:56AM 34.5814 -81.1500 North  Level FlightAware Approximate
10:56AM 34.6419 -81.1958 355° North 120 138 5,100  Level Atlanta Center
10:58AM 34.6778 -81.2022 352° North 121 139 5,100  Level Atlanta Center
10:59AM 34.7092 -81.2064 354° North 121 139 5,100 -60 Level Atlanta Center
11:00AM 34.7489 -81.2150 350° North 127 146 5,000  Descending Atlanta Center
11:01AM 34.7825 -81.2189 355° North 121 139 5,100  Climbing Atlanta Center
11:02AM 34.8117 -81.2231 353° North 119 137 5,000 -60 Descending Atlanta Center
11:03AM 34.8472 -81.2294 352° North 124 143 5,000 -60 Level Atlanta Center
11:04AM 34.8831 -81.2358 352° North 125 144 4,900  Descending Atlanta Center
11:05AM 34.9164 -81.2372 358° North 122 140 5,000  Climbing Atlanta Center
11:06AM 34.9500 -81.2461 348° North 122 140 5,000  Level Atlanta Center
11:07AM 34.9856 -81.2528 351° North 122 140 5,000 -60 Level Atlanta Center
11:08AM 35.0211 -81.2592 352° North 126 145 4,900  Descending Atlanta Center
11:08AM 35.0464 -81.2608 357° North 124 143 5,000 60 Climbing Atlanta Center
11:10AM 35.0883 -81.2694 350° North 121 139 5,100  Climbing Atlanta Center
11:11AM 35.1239 -81.2733 355° North 123 142 5,100  Level Atlanta Center
11:12AM 35.1594 -81.2797 352° North 125 144 5,200  Climbing Atlanta Center
11:13AM 35.1931 -81.2864 351° North 128 147 5,100 -300 Descending Atlanta Center
11:14AM 35.2283 -81.2800 North 134 154 4,700 -480 Descending Atlanta Center
11:15AM 35.2656 -81.2661 17° North 134 154 4,200 -360 Descending Atlanta Center
11:16AM 35.2986 -81.2522 19° North 129 148 4,000 -120 Descending Atlanta Center
11:17AM 35.3314 -81.2333 25° Northeast 124 143 4,000  Level Atlanta Center
11:19AM 35.3847 -81.2005 27° Northeast  Level FlightAware Approximate
11:26AM 35.4667 -81.1500 19° North  Level FlightAware Approximate
11:27AM 35.4320 -81.1527 19° North  Level Estimated
11:28AM 35.4667 -81.1500 19° North  Level FlightAware Approximate
11:29AM 35.4320 -81.1527 19° North  Level Estimated
11:30AM 35.4667 -81.1500 19° North  Level FlightAware Approximate
11:31AM 35.4320 -81.1527 19° North  Level Estimated
11:32AM 35.4667 -81.1500 19° North  Level FlightAware Approximate
11:33AM 35.4320 -81.1527 19° North  Level Estimated
11:34AM 35.4667 -81.1500 19° North  Level FlightAware Approximate
11:35AM 35.4320 -81.1527 19° North  Level Estimated
11:36AM 35.4667 -81.1500 19° North  Level FlightAware Approximate
11:37AM 35.4320 -81.1527 19° North  Level Estimated
11:38AM 35.4667 -81.1500 19° North  Level FlightAware Approximate
11:39AM 35.4320 -81.1527 19° North  Level Estimated